Предлагаем Вашему вниманию английскую версию страницы: AUTOTAF.ME 15550 - aviation weather forecast Silistra

AUTOTAF 15550 - авиапрогноз Silistra

Сегодня рассвет 04:02 UTC, восход солнца 04:31 UTC,
местный полдень 09:52 UTC, заход солнца 15:13 UTC,
наступление темноты 15:43 UTC.

Краткий прогноз 15550 на 9 часов

AUTOTAF.ME 15550 212000Z 2121/2206 22003MPS CAVOK

Детальный прогноз 15550 на 24 часа

AUTOTAF.ME 15550 212000Z 2121/2221 22003MPS 9999 SCT260 TX23/2212Z TN10/2203Z

Подробный табличный прогноз

Время (UTC) miniAUTOTAF на 3 ч WX FZLVL
M AGL
ICE TURB Т
(°С)
Тd
(°С)
f(%) QNH
(гПа)
WIND/T
18 18003MPS 9999 SCT310 3900 12 7 72 1025 ...
21 22003MPS 9999 SCT260 3900 11 7 78 1024 ...
22.10.2020
00 22004MPS 9999 FEW260 3900 11 7 77 1024 ...
03 24003MPS 9999 SKC 4200 10 5 75 1023 ...
06 24003MPS 9999 SCT310 3900 12 5 63 1023 ...
09 24005MPS 9999 SCT330 4200 MOD SFC/FL20 19 5 40 1023 ...
12 23004MPS 9999 SCT330 4200 MOD SFC/FL30 23 1 24 1022 ...
15 VRB02MPS 9999 SKC 4200 MOD SFC/FL30 19 0 29 1021 ...
18 23003MPS 9999 SKC 4200 15 1 38 1022 ...
21 22003MPS 9999 SKC 4200 13 5 56 1022 ...
23.10.2020
00 22003MPS 9999 SKC 4200 12 7 70 1021 ...
03 VRB02MPS 9999 SKC 4200 12 6 68 1020 ...
06 22003MPS 9999 SKC 4200 14 4 52 1020 ...
09 25003MPS 9999 SKC 4200 MOD SFC/FL20 21 3 32 1020 ...
12 24003MPS 9999 SKC 4200 MOD SFC/FL30 25 -1 18 1018 ...
15 VRB02MPS 9999 SKC 4200 MOD FL30/FL40 20 -1 25 1016 ...


Широта 44.1°, долгота 27.9°, высота 16 м абс.
Средняя высота рельефа местности 140 м абс.
Прогнозы обновляются четыре раза в сутки: в 02, 08, 14, 20 ч всемирного времени.


Выбрать прогноз по другой модели Silistra
Онлайн-сводка гроз по Silistra (для РФ и ближнего зарубежья)
Карта фактических гроз в окрестностях Silistra
Динамические прогностические карты (ventusky.com)
Прогностическая карта высоты нижней границы облаков по Silistra (windy.com)
Выбрать другой город

Прогноз предназначен для личного научно-познавательного использования частными лицами
и не предназначен для принятия важных решений и выполнения реальных полётов воздушных судов

При копировании или ином использовании любых материалов данного сайта ссылка на © meteocenter.asia обязательна.

0.85/1.3